Time;durP1;ratioP1;P1;durP2;ratioP2;P2;SDS_P1;SDS_P2;PMS_P1;PMS_P2;Temp;Humidity;BMP_temperature;BMP_pressure;BME280_temperature;BME280_humidity;BME280_pressure;Samples;Min_cycle;Max_cycle;Signal;HPM_P1;HPM_P2
2023/07/04 00:01:30;;;;;;;0.10;0.10;;;;;;;-145.01;100.00;64805.59;5082236;28;20075;-59
2023/07/04 00:03:58;;;;;;;0.00;0.00;;;;;;;-145.01;100.00;64805.59;5076574;28;20048;-58
2023/07/04 00:06:29;;;;;;;0.10;0.10;;;;;;;-145.01;100.00;64805.59;5077027;28;20491;-58
2023/07/04 00:08:56;;;;;;;0.10;0.10;;;;;;;-145.01;100.00;64805.59;5081119;28;20144;-58
2023/07/04 00:11:24;;;;;;;0.10;0.10;;;;;;;-145.01;100.00;64805.59;5081261;28;20052;-58
2023/07/04 00:13:51;;;;;;;0.10;0.10;;;;;;;-145.01;100.00;64805.59;5072266;28;20126;-59
2023/07/04 00:16:19;;;;;;;0.10;0.10;;;;;;;-145.01;100.00;64805.59;5076355;28;20064;-60
2023/07/04 00:18:47;;;;;;;0.10;0.10;;;;;;;-145.01;100.00;64805.59;5074150;28;20046;-58
2023/07/04 00:21:15;;;;;;;0.03;0.03;;;;;;;-145.01;100.00;64805.59;5084974;28;20048;-58
2023/07/04 00:23:45;;;;;;;0.10;0.10;;;;;;;-145.01;100.00;64805.59;5077148;28;20486;-58
2023/07/04 00:26:19;;;;;;;0.10;0.10;;;;;;;-145.01;100.00;64805.59;5083339;28;20478;-58
2023/07/04 00:28:47;;;;;;;0.15;0.10;;;;;;;-145.01;100.00;64805.59;5084629;28;20088;-58
2023/07/04 00:31:22;;;;;;;0.20;0.20;;;;;;;-145.01;100.00;64805.59;5072076;28;20047;-58
2023/07/04 00:33:51;;;;;;;0.10;0.10;;;;;;;-145.01;100.00;64805.59;5078293;28;20048;-58
2023/07/04 00:36:20;;;;;;;0.17;0.17;;;;;;;-145.01;100.00;64805.59;5071305;28;20048;-58
2023/07/04 00:38:51;;;;;;;0.20;0.20;;;;;;;-145.01;100.00;64805.59;5077498;28;20531;-58
2023/07/04 00:41:21;;;;;;;0.08;0.08;;;;;;;-145.01;100.00;64805.59;5077126;28;20067;-59
2023/07/04 00:44:00;;;;;;;0.10;0.10;;;;;;;-145.01;100.00;64805.59;5074500;28;20250;-58
2023/07/04 00:46:39;;;;;;;0.10;0.10;;;;;;;-145.01;100.00;64805.59;5071369;28;20123;-58
2023/07/04 00:49:09;;;;;;;0.00;0.00;;;;;;;-145.01;100.00;64805.59;5078561;28;20051;-60
2023/07/04 00:51:36;;;;;;;;;;;;;;;-145.01;100.00;64805.59;5077806;28;20048;-57
2023/07/04 00:54:05;;;;;;;0.20;0.20;;;;;;;-145.01;100.00;64805.59;5074040;28;19924;-60
2023/07/04 00:56:32;;;;;;;0.08;0.08;;;;;;;-145.01;100.00;64805.59;5074148;28;20067;-58
2023/07/04 00:59:00;;;;;;;0.10;0.10;;;;;;;-145.01;100.00;64805.59;5079885;28;20239;-58
2023/07/04 01:01:28;;;;;;;0.20;0.20;;;;;;;-145.01;100.00;64805.59;5082142;28;20059;-60
2023/07/04 01:03:56;;;;;;;0.20;0.20;;;;;;;-145.01;100.00;64805.59;5078133;28;20052;-60
2023/07/04 01:06:25;;;;;;;0.10;0.10;;;;;;;-145.01;100.00;64805.59;5076377;28;20044;-58
2023/07/04 01:08:56;;;;;;;0.20;0.20;;;;;;;-145.01;100.00;64805.59;5078542;28;20078;-60
2023/07/04 01:11:29;;;;;;;0.10;0.10;;;;;;;-145.01;100.00;64805.59;5078833;28;20060;-57
2023/07/04 01:13:56;;;;;;;0.13;0.13;;;;;;;-145.01;100.00;64805.59;5084328;28;20392;-57
2023/07/04 01:16:28;;;;;;;0.10;0.10;;;;;;;-145.01;100.00;64805.59;5078942;28;20090;-60
2023/07/04 01:18:57;;;;;;;0.10;0.10;;;;;;;-145.01;100.00;64805.59;5077091;28;20438;-59
2023/07/04 01:21:26;;;;;;;0.10;0.10;;;;;;;-145.01;100.00;64805.59;5075680;28;20440;-59
2023/07/04 01:23:58;;;;;;;0.10;0.10;;;;;;;-145.01;100.00;64805.59;5076207;28;20534;-59
2023/07/04 01:26:30;;;;;;;0.10;0.10;;;;;;;-145.01;100.00;64805.59;5077010;28;20448;-59
2023/07/04 01:28:57;;;;;;;0.10;0.10;;;;;;;-145.01;100.00;64805.59;5076116;28;20048;-59
2023/07/04 01:31:26;;;;;;;0.10;0.10;;;;;;;-145.01;100.00;64805.59;5075895;28;20267;-59
2023/07/04 01:33:54;;;;;;;0.10;0.10;;;;;;;-145.01;100.00;64805.59;5076044;28;20510;-59
2023/07/04 01:36:24;;;;;;;0.17;0.17;;;;;;;-145.01;100.00;64805.59;5075732;28;20041;-59
2023/07/04 01:38:52;;;;;;;0.28;0.15;;;;;;;-145.01;100.00;64805.59;5096726;28;20139;-59
2023/07/04 01:41:24;;;;;;;0.20;0.20;;;;;;;-145.01;100.00;64805.59;5073830;28;20163;-59
2023/07/04 01:44:00;;;;;;;0.10;0.10;;;;;;;-145.01;100.00;64805.59;5064321;28;20079;-59
2023/07/04 01:46:28;;;;;;;0.10;0.10;;;;;;;-145.01;100.00;64805.59;5076100;28;20078;-59
2023/07/04 01:48:59;;;;;;;0.20;0.20;;;;;;;-145.01;100.00;64805.59;5081518;28;20098;-59
2023/07/04 01:51:28;;;;;;;0.10;0.10;;;;;;;-145.01;100.00;64805.59;5074088;28;20056;-59
2023/07/04 01:53:57;;;;;;;0.20;0.20;;;;;;;-145.01;100.00;64805.59;5080788;28;20110;-59
2023/07/04 01:56:26;;;;;;;0.10;0.10;;;;;;;-145.01;100.00;64805.59;5077972;28;20782;-59
2023/07/04 01:58:55;;;;;;;0.17;0.17;;;;;;;-145.01;100.00;64805.59;5077057;28;20118;-59
2023/07/04 02:01:23;;;;;;;0.10;0.10;;;;;;;-145.01;100.00;64805.59;5074777;28;20128;-59
2023/07/04 02:03:52;;;;;;;0.10;0.10;;;;;;;-145.01;100.00;64805.59;5072779;28;20465;-59
2023/07/04 02:06:20;;;;;;;0.10;0.10;;;;;;;-145.01;100.00;64805.59;5075376;28;20419;-59
2023/07/04 02:08:47;;;;;;;0.30;0.30;;;;;;;-145.01;100.00;64805.59;5076063;28;20040;-59
2023/07/04 02:11:17;;;;;;;0.10;0.10;;;;;;;-145.01;100.00;64805.59;5075198;28;20072;-59
2023/07/04 02:13:45;;;;;;;0.10;0.10;;;;;;;-145.01;100.00;64805.59;5072593;28;20051;-59
2023/07/04 02:16:14;;;;;;;0.20;0.20;;;;;;;-145.01;100.00;64805.59;5080162;28;20075;-59
2023/07/04 02:18:42;;;;;;;0.10;0.10;;;;;;;-145.01;100.00;64805.59;5080894;28;20441;-59
2023/07/04 02:21:11;;;;;;;0.20;0.20;;;;;;;-145.01;100.00;64805.59;5071543;28;20074;-59
2023/07/04 02:23:39;;;;;;;;;;;;;;;-145.01;100.00;64805.59;5076831;28;20124;-59
2023/07/04 02:26:09;;;;;;;0.10;0.10;;;;;;;-145.01;100.00;64805.59;5069958;28;19920;-59
2023/07/04 02:28:36;;;;;;;0.15;0.15;;;;;;;-145.01;100.00;64805.59;5076334;28;20043;-59
2023/07/04 02:31:04;;;;;;;0.10;0.10;;;;;;;-145.01;100.00;64805.59;5076042;28;20163;-58
2023/07/04 02:33:34;;;;;;;0.20;0.20;;;;;;;-145.01;100.00;64805.59;5080029;28;20055;-59
2023/07/04 02:36:02;;;;;;;0.17;0.17;;;;;;;-145.01;100.00;64805.59;5069902;28;20049;-59
2023/07/04 02:38:29;;;;;;;0.10;0.10;;;;;;;-145.01;100.00;64805.59;5074679;28;20115;-58
2023/07/04 02:40:57;;;;;;;0.10;0.10;;;;;;;-145.01;100.00;64805.59;5072886;28;20059;-58
2023/07/04 02:43:25;;;;;;;0.17;0.17;;;;;;;-145.01;100.00;64805.59;5068506;28;20060;-58
2023/07/04 02:45:53;;;;;;;0.22;0.22;;;;;;;-145.01;100.00;64805.59;5080537;28;20423;-58
2023/07/04 02:48:20;;;;;;;0.10;0.10;;;;;;;-145.01;100.00;64805.59;5073892;28;20098;-59
2023/07/04 02:50:50;;;;;;;0.17;0.17;;;;;;;-145.01;100.00;64805.59;5090407;28;20048;-59
2023/07/04 02:53:21;;;;;;;0.20;0.20;;;;;;;-145.01;100.00;64805.59;5077360;28;20036;-59
2023/07/04 02:55:49;;;;;;;0.20;0.20;;;;;;;-145.01;100.00;64805.59;5080670;28;20645;-59
2023/07/04 02:58:20;;;;;;;0.20;0.20;;;;;;;-145.01;100.00;64805.59;5074699;28;20093;-58
2023/07/04 03:00:48;;;;;;;0.13;0.13;;;;;;;-145.01;100.00;64805.59;5078393;28;20048;-59
2023/07/04 03:03:16;;;;;;;0.10;0.10;;;;;;;-145.01;100.00;64805.59;5073753;28;20659;-59
2023/07/04 03:05:45;;;;;;;0.10;0.10;;;;;;;-145.01;100.00;64805.59;5072419;28;20140;-59
2023/07/04 03:08:14;;;;;;;0.10;0.10;;;;;;;-145.01;100.00;64805.59;5076691;28;20144;-59
2023/07/04 03:10:42;;;;;;;0.23;0.23;;;;;;;-145.01;100.00;64805.59;5089044;28;20076;-59
2023/07/04 03:13:10;;;;;;;0.20;0.20;;;;;;;-145.01;100.00;64805.59;5071306;28;20297;-59
2023/07/04 03:15:39;;;;;;;0.17;0.10;;;;;;;-145.01;100.00;64805.59;5077144;28;20479;-59
2023/07/04 03:18:06;;;;;;;0.10;0.10;;;;;;;-145.01;100.00;64805.59;5075055;28;20058;-60
2023/07/04 03:20:34;;;;;;;0.20;0.20;;;;;;;-145.01;100.00;64805.59;5055415;28;20342;-59
2023/07/04 03:23:01;;;;;;;0.28;0.28;;;;;;;-145.01;100.00;64805.59;5075084;28;20060;-59
2023/07/04 03:25:30;;;;;;;0.10;0.10;;;;;;;-145.01;100.00;64805.59;5073931;28;20040;-58
2023/07/04 03:27:59;;;;;;;;;;;;;;;-145.01;100.00;64805.59;5077336;28;20371;-60
2023/07/04 03:30:29;;;;;;;0.10;0.10;;;;;;;-145.01;100.00;64805.59;5091851;28;19935;-59
2023/07/04 03:33:03;;;;;;;0.20;0.20;;;;;;;-145.01;100.00;64805.59;5076605;28;20055;-58
2023/07/04 03:35:30;;;;;;;0.20;0.20;;;;;;;-145.01;100.00;64805.59;5078948;28;20041;-59
2023/07/04 03:38:00;;;;;;;0.20;0.20;;;;;;;-145.01;100.00;64805.59;5077325;28;20036;-59
2023/07/04 03:40:28;;;;;;;0.10;0.10;;;;;;;-145.01;100.00;64805.59;5076413;28;20071;-59
2023/07/04 03:42:57;;;;;;;0.20;0.20;;;;;;;-145.01;100.00;64805.59;5079236;28;20036;-59
2023/07/04 03:45:24;;;;;;;0.20;0.20;;;;;;;-145.01;100.00;64805.59;5072369;28;20044;-59
2023/07/04 03:47:52;;;;;;;0.17;0.17;;;;;;;-145.01;100.00;64805.59;5074951;28;20479;-60
2023/07/04 03:50:19;;;;;;;0.20;0.20;;;;;;;-145.01;100.00;64805.59;5073092;28;20641;-60
2023/07/04 03:52:47;;;;;;;0.10;0.10;;;;;;;-145.01;100.00;64805.59;5087921;28;20573;-59
2023/07/04 03:55:15;;;;;;;0.20;0.20;;;;;;;-145.01;100.00;64805.59;5075798;28;20044;-59
2023/07/04 03:57:43;;;;;;;0.20;0.20;;;;;;;-145.01;100.00;64805.59;5074355;28;20044;-59
2023/07/04 04:00:12;;;;;;;0.10;0.10;;;;;;;-145.01;100.00;64805.59;5069414;28;20497;-59
2023/07/04 04:03:02;;;;;;;0.20;0.20;;;;;;;-145.01;100.00;64805.59;5072671;28;20053;-59
2023/07/04 04:05:31;;;;;;;0.10;0.10;;;;;;;-145.01;100.00;64805.59;5072480;28;20067;-59
2023/07/04 04:07:58;;;;;;;0.10;0.10;;;;;;;-145.01;100.00;64805.59;5078639;28;20048;-59
2023/07/04 04:10:26;;;;;;;0.20;0.20;;;;;;;-145.01;100.00;64805.59;5076888;28;21249;-59
2023/07/04 04:12:53;;;;;;;0.10;0.10;;;;;;;-145.01;100.00;64805.59;5073240;28;20044;-59
2023/07/04 04:15:22;;;;;;;0.10;0.10;;;;;;;-145.01;100.00;64805.59;5077423;28;20055;-59
2023/07/04 04:17:50;;;;;;;0.10;0.10;;;;;;;-145.01;100.00;64805.59;5071877;28;20054;-60
2023/07/04 04:20:18;;;;;;;0.10;0.10;;;;;;;-145.01;100.00;64805.59;5073516;28;20147;-59
2023/07/04 04:22:48;;;;;;;0.17;0.17;;;;;;;-145.01;100.00;64805.59;5080987;28;20044;-60
2023/07/04 04:25:17;;;;;;;0.20;0.20;;;;;;;-145.01;100.00;64805.59;5075762;28;20526;-59
2023/07/04 04:27:45;;;;;;;0.10;0.10;;;;;;;-145.01;100.00;64805.59;5071479;28;20412;-59
2023/07/04 04:30:14;;;;;;;0.00;0.00;;;;;;;-145.01;100.00;64805.59;5069891;28;20122;-59
2023/07/04 04:32:44;;;;;;;0.13;0.13;;;;;;;-145.01;100.00;64805.59;5079754;28;20127;-59
2023/07/04 04:35:12;;;;;;;0.20;0.20;;;;;;;-145.01;100.00;64805.59;5075529;28;20653;-59
2023/07/04 04:37:40;;;;;;;0.20;0.20;;;;;;;-145.01;100.00;64805.59;5075423;28;20075;-59
2023/07/04 04:40:08;;;;;;;0.10;0.10;;;;;;;-145.01;100.00;64805.59;5078029;28;20051;-59
2023/07/04 04:42:36;;;;;;;0.20;0.20;;;;;;;-145.01;100.00;64805.59;5083756;28;20056;-59
2023/07/04 04:45:03;;;;;;;0.13;0.13;;;;;;;-145.01;100.00;64805.59;5081588;28;20418;-59
2023/07/04 04:47:33;;;;;;;0.10;0.10;;;;;;;-145.01;100.00;64805.59;5072389;28;20097;-59
2023/07/04 04:50:02;;;;;;;0.15;0.15;;;;;;;-145.01;100.00;64805.59;5077864;28;20044;-60
2023/07/04 04:52:30;;;;;;;0.00;0.00;;;;;;;-145.01;100.00;64805.59;5075927;28;20055;-60
2023/07/04 04:54:58;;;;;;;0.10;0.10;;;;;;;-145.01;100.00;64805.59;5077096;28;20131;-59
2023/07/04 04:57:25;;;;;;;0.10;0.10;;;;;;;-145.01;100.00;64805.59;5083255;28;20424;-59
2023/07/04 04:59:59;;;;;;;0.10;0.10;;;;;;;-145.01;100.00;64805.59;5078118;28;20127;-59
2023/07/04 05:02:26;;;;;;;0.10;0.10;;;;;;;-145.01;100.00;64805.59;5084738;28;20044;-59
2023/07/04 05:04:54;;;;;;;0.10;0.10;;;;;;;-145.01;100.00;64805.59;5080520;28;20047;-58
2023/07/04 05:07:24;;;;;;;0.10;0.10;;;;;;;-145.01;100.00;64805.59;5077214;28;20032;-58
2023/07/04 05:09:53;;;;;;;0.10;0.10;;;;;;;-145.01;100.00;64805.59;5083637;28;20421;-58
2023/07/04 05:12:21;;;;;;;0.10;0.10;;;;;;;-145.01;100.00;64805.59;5074693;28;20532;-59
2023/07/04 05:14:48;;;;;;;0.10;0.10;;;;;;;-145.01;100.00;64805.59;5093568;28;20315;-59
2023/07/04 05:17:16;;;;;;;0.00;0.00;;;;;;;-145.01;100.00;64805.59;5077775;28;20076;-58
2023/07/04 05:19:44;;;;;;;0.10;0.10;;;;;;;-145.01;100.00;64805.59;5077299;28;20043;-58
2023/07/04 05:22:12;;;;;;;0.10;0.10;;;;;;;-145.01;100.00;64805.59;5077730;28;20048;-58
2023/07/04 05:24:41;;;;;;;0.10;0.10;;;;;;;-145.01;100.00;64805.59;5077912;28;20097;-59
2023/07/04 05:27:09;;;;;;;0.05;0.05;;;;;;;-145.01;100.00;64805.59;5077173;28;20047;-59
2023/07/04 05:29:36;;;;;;;0.08;0.08;;;;;;;-145.01;100.00;64805.59;5077108;28;20490;-59
2023/07/04 05:32:04;;;;;;;0.10;0.10;;;;;;;-145.01;100.00;64805.59;5076966;28;20395;-60
2023/07/04 05:34:31;;;;;;;0.00;0.00;;;;;;;-145.01;100.00;64805.59;5073828;28;20366;-59
2023/07/04 05:37:03;;;;;;;0.00;0.00;;;;;;;-145.01;100.00;64805.59;5076097;28;20048;-60
2023/07/04 05:39:31;;;;;;;0.10;0.10;;;;;;;-145.01;100.00;64805.59;5077002;28;20239;-60
2023/07/04 05:42:00;;;;;;;0.10;0.10;;;;;;;-145.01;100.00;64805.59;5080168;28;20044;-60
2023/07/04 05:44:28;;;;;;;0.00;0.00;;;;;;;-145.01;100.00;64805.59;5080012;28;20419;-59
2023/07/04 05:46:55;;;;;;;0.00;0.00;;;;;;;-145.01;100.00;64805.59;5076774;28;20127;-59
2023/07/04 05:49:23;;;;;;;0.00;0.00;;;;;;;-145.01;100.00;64805.59;5075076;28;20544;-59
2023/07/04 05:51:51;;;;;;;0.00;0.00;;;;;;;-145.01;100.00;64805.59;5074880;28;20044;-60
2023/07/04 05:54:19;;;;;;;0.10;0.10;;;;;;;-145.01;100.00;64805.59;5079628;28;20075;-57
2023/07/04 05:56:51;;;;;;;0.05;0.05;;;;;;;-145.01;100.00;64805.59;5071920;28;20036;-59
2023/07/04 05:59:20;;;;;;;0.00;0.00;;;;;;;-145.01;100.00;64805.59;5072927;28;20056;-59
2023/07/04 06:01:51;;;;;;;0.00;0.00;;;;;;;-145.01;100.00;64805.59;5073877;28;20036;-59
2023/07/04 06:04:20;;;;;;;0.00;0.00;;;;;;;-145.01;100.00;64805.59;5072812;28;20051;-59
2023/07/04 06:06:51;;;;;;;0.10;0.10;;;;;;;-145.01;100.00;64805.59;5074996;28;20127;-59
2023/07/04 06:09:19;;;;;;;0.10;0.10;;;;;;;-145.01;100.00;64805.59;5080224;28;20042;-59
2023/07/04 06:11:48;;;;;;;0.00;0.00;;;;;;;-145.01;100.00;64805.59;5072690;28;20052;-59
2023/07/04 06:14:16;;;;;;;0.10;0.10;;;;;;;-145.01;100.00;64805.59;5070560;28;20032;-60
2023/07/04 06:16:45;;;;;;;0.10;0.10;;;;;;;-145.01;100.00;64805.59;5074266;28;20060;-60
2023/07/04 06:19:13;;;;;;;0.08;0.03;;;;;;;-145.01;100.00;64805.59;5079947;28;20089;-59
2023/07/04 06:21:40;;;;;;;0.00;0.00;;;;;;;-145.01;100.00;64805.59;5071839;28;20040;-59
2023/07/04 06:24:08;;;;;;;0.00;0.00;;;;;;;-145.01;100.00;64805.59;5078386;28;20422;-59
2023/07/04 06:26:35;;;;;;;0.10;0.10;;;;;;;-145.01;100.00;64805.59;5076620;28;20369;-60
2023/07/04 06:29:03;;;;;;;0.00;0.00;;;;;;;-145.01;100.00;64805.59;5070332;28;20072;-59
2023/07/04 06:31:30;;;;;;;0.00;0.00;;;;;;;-145.01;100.00;64805.59;5076727;28;20482;-59
2023/07/04 06:34:00;;;;;;;0.00;0.00;;;;;;;-145.01;100.00;64805.59;5075041;28;20043;-60
2023/07/04 06:36:30;;;;;;;0.00;0.00;;;;;;;-145.01;100.00;64805.59;5073671;28;20048;-59
2023/07/04 06:39:00;;;;;;;0.00;0.00;;;;;;;-145.01;100.00;64805.59;5076870;28;20173;-59
2023/07/04 06:41:27;;;;;;;0.00;0.00;;;;;;;-145.01;100.00;64805.59;5079782;28;20097;-59
2023/07/04 06:43:55;;;;;;;0.00;0.00;;;;;;;-145.01;100.00;64805.59;5080532;28;20033;-59
2023/07/04 06:46:22;;;;;;;0.00;0.00;;;;;;;-145.01;100.00;64805.59;5072687;28;20287;-59
2023/07/04 06:48:53;;;;;;;0.00;0.00;;;;;;;-145.01;100.00;64805.59;5080449;28;20040;-59
2023/07/04 06:51:24;;;;;;;0.00;0.00;;;;;;;-145.01;100.00;64805.59;5076797;28;20067;-59
2023/07/04 06:53:54;;;;;;;0.10;0.10;;;;;;;-145.01;100.00;64805.59;5076996;28;20043;-59
2023/07/04 06:56:25;;;;;;;0.00;0.00;;;;;;;-145.01;100.00;64805.59;5076681;28;20051;-59
2023/07/04 06:58:53;;;;;;;0.00;0.00;;;;;;;-145.01;100.00;64805.59;5076389;28;20071;-60
2023/07/04 07:01:22;;;;;;;0.03;0.03;;;;;;;-145.01;100.00;64805.59;5080113;28;20036;-59
2023/07/04 07:03:50;;;;;;;0.10;0.10;;;;;;;-145.01;100.00;64805.59;5082259;28;20487;-59
2023/07/04 07:06:17;;;;;;;0.00;0.00;;;;;;;-145.01;100.00;64805.59;5069860;28;20043;-59
2023/07/04 07:08:46;;;;;;;0.00;0.00;;;;;;;-145.01;100.00;64805.59;5078460;28;20115;-59
2023/07/04 07:11:15;;;;;;;0.00;0.00;;;;;;;-145.01;100.00;64805.59;5069437;28;20040;-60
2023/07/04 07:13:46;;;;;;;0.00;0.00;;;;;;;-145.01;100.00;64805.59;5079337;28;20121;-59
2023/07/04 07:16:17;;;;;;;0.00;0.00;;;;;;;-145.01;100.00;64805.59;5082556;28;20479;-59
2023/07/04 07:18:45;;;;;;;0.00;0.00;;;;;;;-145.01;100.00;64805.59;5080793;28;20044;-59
2023/07/04 07:21:14;;;;;;;0.00;0.00;;;;;;;-145.01;100.00;64805.59;5077046;28;20040;-60
2023/07/04 07:23:41;;;;;;;;;;;;;;;-145.01;100.00;64805.59;5081199;28;20048;-59
2023/07/04 07:26:11;;;;;;;0.00;0.00;;;;;;;-145.01;100.00;64805.59;5078288;28;20100;-59
2023/07/04 07:28:40;;;;;;;0.00;0.00;;;;;;;-145.01;100.00;64805.59;5075000;28;20387;-58
2023/07/04 07:31:08;;;;;;;0.00;0.00;;;;;;;-145.01;100.00;64805.59;5075377;28;20442;-59
2023/07/04 07:33:37;;;;;;;0.00;0.00;;;;;;;-145.01;100.00;64805.59;5080275;28;20400;-59
2023/07/04 07:36:11;;;;;;;0.00;0.00;;;;;;;-145.01;100.00;64805.59;5083592;28;20122;-59
2023/07/04 07:38:39;;;;;;;0.00;0.00;;;;;;;-145.01;100.00;64805.59;5077080;28;20040;-58
2023/07/04 07:41:07;;;;;;;0.00;0.00;;;;;;;-145.01;100.00;64805.59;5075258;28;20104;-58
2023/07/04 07:43:37;;;;;;;0.00;0.00;;;;;;;-145.01;100.00;64805.59;5069603;28;20462;-58
2023/07/04 07:46:06;;;;;;;0.00;0.00;;;;;;;-145.01;100.00;64805.59;5079307;28;20580;-58
2023/07/04 07:48:34;;;;;;;0.00;0.00;;;;;;;-145.01;100.00;64805.59;5076043;28;20044;-58
2023/07/04 07:51:01;;;;;;;0.00;0.00;;;;;;;-145.01;100.00;64805.59;5076257;28;20064;-58
2023/07/04 07:53:29;;;;;;;0.00;0.00;;;;;;;-145.01;100.00;64805.59;5066519;28;20148;-58
2023/07/04 07:55:57;;;;;;;0.00;0.00;;;;;;;-145.01;100.00;64805.59;5071670;28;20115;-58
2023/07/04 07:58:25;;;;;;;0.00;0.00;;;;;;;-145.01;100.00;64805.59;5084763;28;20279;-58
2023/07/04 08:00:56;;;;;;;0.00;0.00;;;;;;;-145.01;100.00;64805.59;5074543;28;20040;-58
2023/07/04 08:03:27;;;;;;;0.00;0.00;;;;;;;-145.01;100.00;64805.59;5080033;28;20043;-58
2023/07/04 08:05:55;;;;;;;0.00;0.00;;;;;;;-145.01;100.00;64805.59;5080671;28;20148;-58
2023/07/04 08:08:22;;;;;;;0.00;0.00;;;;;;;-145.01;100.00;64805.59;5076266;28;20099;-59
2023/07/04 08:10:50;;;;;;;0.00;0.00;;;;;;;-145.01;100.00;64805.59;5080288;28;20512;-59
2023/07/04 08:13:18;;;;;;;0.00;0.00;;;;;;;-145.01;100.00;64805.59;5080620;28;20047;-59
2023/07/04 08:15:51;;;;;;;0.00;0.00;;;;;;;-145.01;100.00;64805.59;5075812;28;20048;-59
2023/07/04 08:18:20;;;;;;;0.00;0.00;;;;;;;-145.01;100.00;64805.59;5083860;28;20041;-59
2023/07/04 08:20:56;;;;;;;0.00;0.00;;;;;;;-145.01;100.00;64805.59;5080965;28;21931;-59
2023/07/04 08:23:26;;;;;;;0.00;0.00;;;;;;;-145.01;100.00;64805.59;5075100;28;20444;-59
2023/07/04 08:25:54;;;;;;;0.00;0.00;;;;;;;-145.01;100.00;64805.59;5079369;28;20502;-59
2023/07/04 08:28:25;;;;;;;0.00;0.00;;;;;;;-145.01;100.00;64805.59;5086813;28;20052;-59
2023/07/04 08:30:53;;;;;;;0.00;0.00;;;;;;;-145.01;100.00;64805.59;5082582;28;20121;-59
2023/07/04 08:33:22;;;;;;;0.00;0.00;;;;;;;-145.01;100.00;64805.59;5085951;28;20094;-59
2023/07/04 08:35:57;;;;;;;0.00;0.00;;;;;;;-145.01;100.00;64805.59;5083234;28;20044;-59
2023/07/04 08:38:24;;;;;;;0.00;0.00;;;;;;;-145.01;100.00;64805.59;5083977;28;20490;-59
2023/07/04 08:40:52;;;;;;;0.32;0.00;;;;;;;-145.01;100.00;64805.59;5076705;28;20067;-59
2023/07/04 08:43:20;;;;;;;0.00;0.00;;;;;;;-145.01;100.00;64805.59;5078266;28;20047;-59
2023/07/04 08:45:48;;;;;;;0.00;0.00;;;;;;;-145.01;100.00;64805.59;5069079;28;20044;-59
2023/07/04 08:48:17;;;;;;;0.00;0.00;;;;;;;-145.01;100.00;64805.59;5079513;28;20052;-58
2023/07/04 08:50:46;;;;;;;;;;;;;;;-145.01;100.00;64805.59;5076449;28;20376;-59
2023/07/04 08:53:15;;;;;;;;;;;;;;;-145.01;100.00;64805.59;5076071;28;20015;-59
2023/07/04 08:55:44;;;;;;;0.00;0.00;;;;;;;-145.01;100.00;64805.59;5081698;28;19936;-59
2023/07/04 08:58:12;;;;;;;0.00;0.00;;;;;;;-145.01;100.00;64805.59;5080454;28;20421;-59
2023/07/04 09:00:40;;;;;;;0.00;0.00;;;;;;;-145.01;100.00;64805.59;5073357;28;20406;-59
2023/07/04 09:03:17;;;;;;;0.10;0.03;;;;;;;-145.01;100.00;64805.59;5079601;28;20051;-59
2023/07/04 09:05:52;;;;;;;0.00;0.00;;;;;;;-145.01;100.00;64805.59;5078083;28;20055;-59
2023/07/04 09:08:26;;;;;;;0.00;0.00;;;;;;;-145.01;100.00;64805.59;5075420;28;20044;-59
2023/07/04 09:10:54;;;;;;;0.00;0.00;;;;;;;-145.01;100.00;64805.59;5082982;28;20046;-59
2023/07/04 09:13:27;;;;;;;0.00;0.00;;;;;;;-145.01;100.00;64805.59;5081085;28;20578;-59
2023/07/04 09:15:55;;;;;;;0.00;0.00;;;;;;;-145.01;100.00;64805.59;5079474;28;20491;-59
2023/07/04 09:18:32;;;;;;;0.00;0.00;;;;;;;-145.01;100.00;64805.59;5079812;28;20083;-59
2023/07/04 09:21:04;;;;;;;0.00;0.00;;;;;;;-145.01;100.00;64805.59;5077616;28;20044;-59
2023/07/04 09:23:32;;;;;;;0.00;0.00;;;;;;;-145.01;100.00;64805.59;5070497;28;20128;-59
2023/07/04 09:25:59;;;;;;;0.00;0.00;;;;;;;-145.01;100.00;64805.59;5083039;28;20043;-59
2023/07/04 09:28:27;;;;;;;0.00;0.00;;;;;;;-145.01;100.00;64805.59;5079039;28;20040;-59
2023/07/04 09:30:59;;;;;;;0.00;0.00;;;;;;;-145.01;100.00;64805.59;5074317;28;20523;-59
2023/07/04 09:33:27;;;;;;;0.00;0.00;;;;;;;-145.01;100.00;64805.59;5081647;28;20048;-59
2023/07/04 09:35:56;;;;;;;0.00;0.00;;;;;;;-145.01;100.00;64805.59;5078754;28;20142;-59
2023/07/04 09:38:29;;;;;;;0.00;0.00;;;;;;;-145.01;100.00;64805.59;5076238;28;20047;-59
2023/07/04 09:40:59;;;;;;;0.00;0.00;;;;;;;-145.01;100.00;64805.59;5077812;28;20043;-59
2023/07/04 09:43:28;;;;;;;;;;;;;;;-145.01;100.00;64805.59;5077656;28;20041;-59
2023/07/04 09:46:16;;;;;;;0.20;0.00;;;;;;;-145.01;100.00;64805.59;5083732;28;20451;-59
2023/07/04 09:48:44;;;;;;;0.00;0.00;;;;;;;-145.01;100.00;64805.59;5079125;28;20477;-59
2023/07/04 09:51:27;;;;;;;0.00;0.00;;;;;;;-145.01;100.00;64805.59;5075068;28;20048;-59
2023/07/04 09:54:13;;;;;;;0.00;0.00;;;;;;;-145.01;100.00;64805.59;5083433;28;20133;-59
2023/07/04 09:56:40;;;;;;;0.00;0.00;;;;;;;-145.01;100.00;64805.59;5082747;28;20040;-59
2023/07/04 09:59:13;;;;;;;0.00;0.00;;;;;;;-145.01;100.00;64805.59;5080510;28;20051;-59
2023/07/04 10:01:41;;;;;;;0.00;0.00;;;;;;;-145.01;100.00;64805.59;5077519;28;20048;-59
2023/07/04 10:04:09;;;;;;;0.00;0.00;;;;;;;-145.01;100.00;64805.59;5079508;28;20040;-59
2023/07/04 10:06:38;;;;;;;0.00;0.00;;;;;;;-145.01;100.00;64805.59;5078956;28;20416;-59
2023/07/04 10:09:14;;;;;;;0.00;0.00;;;;;;;-145.01;100.00;64805.59;5076381;28;20062;-59
2023/07/04 10:11:43;;;;;;;0.00;0.00;;;;;;;-145.01;100.00;64805.59;5081593;28;20043;-59
2023/07/04 10:14:12;;;;;;;0.00;0.00;;;;;;;-145.01;100.00;64805.59;5081569;28;20155;-59
2023/07/04 10:16:45;;;;;;;0.00;0.00;;;;;;;-145.01;100.00;64805.59;5071187;28;20052;-59
2023/07/04 10:19:17;;;;;;;0.00;0.00;;;;;;;-145.01;100.00;64805.59;5074858;28;20044;-59
2023/07/04 10:21:45;;;;;;;0.00;0.00;;;;;;;-145.01;100.00;64805.59;5074197;28;20556;-59
2023/07/04 10:24:17;;;;;;;0.00;0.00;;;;;;;-145.01;100.00;64805.59;5081798;28;20036;-59
2023/07/04 10:26:48;;;;;;;0.00;0.00;;;;;;;-145.01;100.00;64805.59;5075102;28;20045;-59
2023/07/04 10:29:16;;;;;;;0.00;0.00;;;;;;;-145.01;100.00;64805.59;5075138;28;20108;-59
2023/07/04 10:31:44;;;;;;;0.00;0.00;;;;;;;-145.01;100.00;64805.59;5064135;28;20044;-59
2023/07/04 10:34:11;;;;;;;0.00;0.00;;;;;;;-145.01;100.00;64805.59;5076948;28;20060;-59
2023/07/04 10:36:39;;;;;;;0.00;0.00;;;;;;;-145.01;100.00;64805.59;5076892;28;20048;-59
2023/07/04 10:39:08;;;;;;;0.00;0.00;;;;;;;-145.01;100.00;64805.59;5080313;28;20582;-59
2023/07/04 10:41:39;;;;;;;0.00;0.00;;;;;;;-145.01;100.00;64805.59;5078292;28;20121;-59
2023/07/04 10:44:12;;;;;;;0.00;0.00;;;;;;;-145.01;100.00;64805.59;5078736;28;20048;-59
2023/07/04 10:46:43;;;;;;;0.00;0.00;;;;;;;-145.01;100.00;64805.59;5081482;28;20036;-59
2023/07/04 10:49:13;;;;;;;0.00;0.00;;;;;;;-145.01;100.00;64805.59;5072399;28;20055;-58
2023/07/04 10:51:41;;;;;;;0.00;0.00;;;;;;;-145.01;100.00;64805.59;5082114;28;20486;-58
2023/07/04 10:54:09;;;;;;;0.00;0.00;;;;;;;-145.01;100.00;64805.59;5073974;28;20105;-59
2023/07/04 10:56:36;;;;;;;0.10;0.10;;;;;;;-145.01;100.00;64805.59;5074044;28;20098;-59
2023/07/04 10:59:05;;;;;;;0.00;0.00;;;;;;;-145.01;100.00;64805.59;5076629;28;20052;-59
2023/07/04 11:01:35;;;;;;;0.00;0.00;;;;;;;-145.01;100.00;64805.59;5078887;28;20512;-59
2023/07/04 11:04:04;;;;;;;0.00;0.00;;;;;;;-145.01;100.00;64805.59;5073091;28;20042;-59
2023/07/04 11:06:37;;;;;;;0.00;0.00;;;;;;;-145.01;100.00;64805.59;5076911;28;20098;-59
2023/07/04 11:09:06;;;;;;;0.00;0.00;;;;;;;-145.01;100.00;64805.59;5072683;28;20040;-58
2023/07/04 11:11:33;;;;;;;0.00;0.00;;;;;;;-145.01;100.00;64805.59;5076694;28;20062;-58
2023/07/04 11:14:03;;;;;;;0.00;0.00;;;;;;;-145.01;100.00;64805.59;5078493;28;20106;-59
2023/07/04 11:16:31;;;;;;;0.00;0.00;;;;;;;-145.01;100.00;64805.59;5079327;28;20105;-58
2023/07/04 11:19:08;;;;;;;0.00;0.00;;;;;;;-145.01;100.00;64805.59;5075669;28;20040;-58
2023/07/04 11:21:38;;;;;;;0.00;0.00;;;;;;;-145.01;100.00;64805.59;5074759;28;20534;-59